createdAt,value
2018-12-29T00:00:46.119Z,79.24
2018-12-29T00:03:15.519Z,79.91
2018-12-29T00:05:44.947Z,79.65
2018-12-29T00:08:14.331Z,79.64
2018-12-29T00:10:43.729Z,79.71
2018-12-29T00:13:13.222Z,80.35
2018-12-29T00:15:42.613Z,80.42
2018-12-29T00:18:11.981Z,79.89
2018-12-29T00:20:41.415Z,80.20
2018-12-29T00:23:10.802Z,80.93
2018-12-29T00:25:40.201Z,80.56
2018-12-29T00:28:09.685Z,80.12
2018-12-29T00:30:39.070Z,80.76
2018-12-29T00:33:08.468Z,80.00
2018-12-29T00:35:38.321Z,79.79
2018-12-29T00:38:07.753Z,79.82
2018-12-29T00:40:37.371Z,80.17
2018-12-29T00:43:07.015Z,79.86
2018-12-29T00:45:36.422Z,79.94
2018-12-29T00:48:09.176Z,79.88
2018-12-29T00:50:38.968Z,79.94
2018-12-29T00:53:08.336Z,79.60
2018-12-29T00:55:37.952Z,79.45
2018-12-29T00:58:07.638Z,79.70
2018-12-29T01:00:37.183Z,80.02
2018-12-29T01:03:06.572Z,80.97
2018-12-29T01:05:36.042Z,80.98
2018-12-29T01:08:05.444Z,80.55
2018-12-29T01:10:34.906Z,80.30
2018-12-29T01:13:04.301Z,80.13
2018-12-29T01:15:33.724Z,80.30
2018-12-29T01:18:03.195Z,80.05
2018-12-29T01:20:32.951Z,79.67
2018-12-29T01:23:02.578Z,79.41
2018-12-29T01:25:32.004Z,79.25
2018-12-29T01:28:01.519Z,79.56
2018-12-29T01:30:30.921Z,79.25
2018-12-29T01:33:00.317Z,79.70
2018-12-29T01:35:29.770Z,79.50
2018-12-29T01:37:59.749Z,79.65
2018-12-29T01:40:29.730Z,79.45
2018-12-29T01:43:00.123Z,79.14
2018-12-29T01:45:29.717Z,79.51
2018-12-29T01:47:59.693Z,79.51
2018-12-29T01:50:29.776Z,79.66
2018-12-29T01:52:59.967Z,79.07
2018-12-29T01:55:29.654Z,79.37
2018-12-29T01:57:59.686Z,78.93
2018-12-29T02:00:29.675Z,78.89
2018-12-29T02:02:59.685Z,78.91
2018-12-29T02:05:29.805Z,79.25
2018-12-29T02:07:59.613Z,78.98
2018-12-29T02:10:29.733Z,79.02
2018-12-29T02:12:59.713Z,79.12
2018-12-29T02:15:29.721Z,79.23
2018-12-29T02:17:59.653Z,79.38
2018-12-29T02:20:30.076Z,79.39
2018-12-29T02:22:59.755Z,79.73
2018-12-29T02:25:29.942Z,79.49
2018-12-29T02:27:59.790Z,79.37
2018-12-29T02:30:29.759Z,79.18
2018-12-29T02:32:59.745Z,79.02
2018-12-29T02:35:29.986Z,79.22
2018-12-29T02:37:59.717Z,79.73
2018-12-29T02:40:29.789Z,79.81
2018-12-29T02:42:59.829Z,79.93
2018-12-29T02:45:33.266Z,79.99
2018-12-29T02:48:01.066Z,79.74
2018-12-29T02:50:30.638Z,79.55
2018-12-29T02:53:01.108Z,79.07
2018-12-29T02:55:30.644Z,80.03
2018-12-29T02:58:00.191Z,79.98
2018-12-29T03:00:29.731Z,80.27
2018-12-29T03:02:59.699Z,80.17
2018-12-29T03:05:29.837Z,80.73
2018-12-29T03:07:59.716Z,81.20
2018-12-29T03:10:29.742Z,80.88
2018-12-29T03:12:59.760Z,81.04
2018-12-29T03:15:29.732Z,81.27
2018-12-29T03:17:59.734Z,81.18
2018-12-29T03:20:29.855Z,81.42
2018-12-29T03:22:59.756Z,81.12
2018-12-29T03:25:29.814Z,81.07
2018-12-29T03:27:59.867Z,81.49
2018-12-29T03:30:29.735Z,81.26
2018-12-29T03:32:59.969Z,81.50
2018-12-29T03:35:29.944Z,81.72
2018-12-29T03:37:59.744Z,81.54
2018-12-29T03:40:29.893Z,82.01
2018-12-29T03:42:59.973Z,81.75
2018-12-29T03:45:29.774Z,81.51
2018-12-29T03:47:59.748Z,81.66
2018-12-29T03:50:29.903Z,82.03
2018-12-29T03:52:59.770Z,81.80
2018-12-29T03:55:29.839Z,81.97
2018-12-29T03:57:59.826Z,82.08
2018-12-29T04:00:29.796Z,82.18
2018-12-29T04:02:59.788Z,82.40
2018-12-29T04:05:29.933Z,82.96
2018-12-29T04:07:59.874Z,82.59
2018-12-29T04:10:29.810Z,82.77
2018-12-29T04:13:01.430Z,83.08
2018-12-29T04:15:31.155Z,83.62
2018-12-29T04:18:00.585Z,83.29
2018-12-29T04:20:30.045Z,83.29
2018-12-29T04:22:59.849Z,83.44
2018-12-29T04:25:29.839Z,83.41
2018-12-29T04:28:00.010Z,83.71
2018-12-29T04:30:29.895Z,83.27
2018-12-29T04:32:59.890Z,83.84
2018-12-29T04:35:30.124Z,83.55
2018-12-29T04:37:59.893Z,83.40
2018-12-29T04:40:29.889Z,83.28
2018-12-29T04:43:00.454Z,83.75
2018-12-29T04:45:29.894Z,84.12
2018-12-29T04:47:59.909Z,84.23
2018-12-29T04:50:30.092Z,84.20
2018-12-29T04:52:59.938Z,83.78
2018-12-29T04:55:29.912Z,83.85
2018-12-29T04:58:00.375Z,83.72
2018-12-29T05:00:29.927Z,83.59
2018-12-29T05:02:59.916Z,83.83
2018-12-29T05:05:30.059Z,83.61
2018-12-29T05:07:59.915Z,83.73
2018-12-29T05:10:29.932Z,83.46
2018-12-29T05:12:59.984Z,83.25
2018-12-29T05:15:29.928Z,83.17
2018-12-29T05:17:59.916Z,83.64
2018-12-29T05:20:30.115Z,83.84
2018-12-29T05:22:59.963Z,83.74
2018-12-29T05:25:29.938Z,83.83
2018-12-29T05:28:00.154Z,83.84
2018-12-29T05:30:29.995Z,83.77
2018-12-29T05:32:59.942Z,83.49
2018-12-29T05:35:30.087Z,83.78
2018-12-29T05:37:59.954Z,84.10
2018-12-29T05:40:29.968Z,83.68
2018-12-29T05:43:00.020Z,84.02
2018-12-29T05:45:30.019Z,84.02
2018-12-29T05:47:59.969Z,84.20
2018-12-29T05:50:30.152Z,83.98
2018-12-29T05:53:00.018Z,84.27
2018-12-29T05:55:29.981Z,84.65
2018-12-29T05:58:00.148Z,84.65
2018-12-29T06:00:29.999Z,85.45
2018-12-29T06:03:00.133Z,85.83
2018-12-29T06:05:30.172Z,85.16
2018-12-29T06:08:00.011Z,85.02
2018-12-29T06:10:30.039Z,84.82
2018-12-29T06:13:00.069Z,84.62
2018-12-29T06:15:30.036Z,84.59
2018-12-29T06:18:00.025Z,84.24
2018-12-29T06:20:30.077Z,84.34
2018-12-29T06:23:00.091Z,84.46
2018-12-29T06:25:30.059Z,84.00
2018-12-29T06:28:00.201Z,84.15
2018-12-29T06:30:30.016Z,84.19
2018-12-29T06:33:00.036Z,84.27
2018-12-29T06:35:30.098Z,83.97
2018-12-29T06:38:00.032Z,84.00
2018-12-29T06:40:30.019Z,83.58
2018-12-29T06:43:00.128Z,83.98
2018-12-29T06:45:30.052Z,83.52
2018-12-29T06:48:00.059Z,83.54
2018-12-29T06:50:30.239Z,83.17
2018-12-29T06:53:00.066Z,83.52
2018-12-29T06:55:30.108Z,83.40
2018-12-29T06:58:00.173Z,83.16
2018-12-29T07:00:30.068Z,83.37
2018-12-29T07:03:00.101Z,83.13
2018-12-29T07:05:30.106Z,83.19
2018-12-29T07:08:00.322Z,82.95
2018-12-29T07:10:30.113Z,82.88
2018-12-29T07:13:00.828Z,83.18
2018-12-29T07:15:30.255Z,83.43
2018-12-29T07:18:00.198Z,84.33
2018-12-29T07:20:30.137Z,83.98
2018-12-29T07:23:00.169Z,84.59
2018-12-29T07:25:30.091Z,84.26
2018-12-29T07:28:00.293Z,83.63
2018-12-29T07:30:30.126Z,83.91
2018-12-29T07:33:00.140Z,83.42
2018-12-29T07:35:30.553Z,83.60
2018-12-29T07:38:00.111Z,83.52
2018-12-29T07:40:30.091Z,83.16
2018-12-29T07:43:00.164Z,83.59
2018-12-29T07:45:30.104Z,83.65
2018-12-29T07:48:00.169Z,83.10
2018-12-29T07:50:30.265Z,83.22
2018-12-29T07:53:00.140Z,83.76
2018-12-29T07:55:30.126Z,84.02
2018-12-29T07:58:00.668Z,83.58
2018-12-29T08:00:30.148Z,83.74
2018-12-29T08:03:00.191Z,83.50
2018-12-29T08:05:30.317Z,82.94
2018-12-29T08:08:00.159Z,83.29
2018-12-29T08:10:30.179Z,83.01
2018-12-29T08:13:00.264Z,83.40
2018-12-29T08:15:30.144Z,83.87
2018-12-29T08:18:00.156Z,83.76
2018-12-29T08:20:30.303Z,83.82
2018-12-29T08:23:00.159Z,83.73
2018-12-29T08:25:30.146Z,83.11
2018-12-29T08:28:00.296Z,83.03
2018-12-29T08:30:30.153Z,83.28
2018-12-29T08:33:00.234Z,83.16
2018-12-29T08:35:30.329Z,82.84
2018-12-29T08:38:00.179Z,83.08
2018-12-29T08:40:30.177Z,82.77
2018-12-29T08:43:00.381Z,83.47
2018-12-29T08:45:30.156Z,83.12
2018-12-29T08:48:00.182Z,83.68
2018-12-29T08:50:30.377Z,83.88
2018-12-29T08:53:00.189Z,84.07
2018-12-29T08:55:30.171Z,83.62
2018-12-29T08:58:00.228Z,83.93
2018-12-29T09:00:30.172Z,83.39
2018-12-29T09:03:00.181Z,83.13
2018-12-29T09:05:30.379Z,83.58
2018-12-29T09:08:00.213Z,83.70
2018-12-29T09:10:30.218Z,83.70
2018-12-29T09:13:00.407Z,83.60
2018-12-29T09:15:30.217Z,83.60
2018-12-29T09:18:00.314Z,83.37
2018-12-29T09:20:30.323Z,83.40
2018-12-29T09:23:00.224Z,83.49
2018-12-29T09:25:30.303Z,83.44
2018-12-29T09:28:00.279Z,82.92
2018-12-29T09:30:30.271Z,82.63
2018-12-29T09:33:00.242Z,82.23
2018-12-29T09:35:30.370Z,82.93
2018-12-29T09:38:00.239Z,82.58
2018-12-29T09:40:30.280Z,82.54
2018-12-29T09:43:00.323Z,82.58
2018-12-29T09:45:30.270Z,82.53
2018-12-29T09:48:00.397Z,82.09
2018-12-29T09:50:30.671Z,82.02
2018-12-29T09:53:00.258Z,82.02
2018-12-29T09:55:30.238Z,81.90
2018-12-29T09:58:00.662Z,81.77
2018-12-29T10:00:30.265Z,81.82
2018-12-29T10:03:00.243Z,81.88
2018-12-29T10:05:30.444Z,81.19
2018-12-29T10:08:00.265Z,81.17
2018-12-29T10:10:30.238Z,81.09
2018-12-29T10:13:00.282Z,81.06
2018-12-29T10:15:30.330Z,80.94
2018-12-29T10:18:00.284Z,80.83
2018-12-29T10:20:30.446Z,81.03
2018-12-29T10:23:00.449Z,81.19
2018-12-29T10:25:30.274Z,81.15
2018-12-29T10:28:00.428Z,81.11
2018-12-29T10:30:30.253Z,81.05
2018-12-29T10:33:00.268Z,80.65
2018-12-29T10:35:30.409Z,80.48
2018-12-29T10:38:00.283Z,80.16
2018-12-29T10:40:30.255Z,80.91
2018-12-29T10:43:00.393Z,79.89
2018-12-29T10:45:30.261Z,79.36
2018-12-29T10:48:00.332Z,79.61
2018-12-29T10:50:30.455Z,79.65
2018-12-29T10:53:00.335Z,79.03
2018-12-29T10:55:30.299Z,78.96
2018-12-29T10:58:00.450Z,79.33
2018-12-29T11:00:34.969Z,80.04
2018-12-29T11:03:01.507Z,80.38
2018-12-29T11:05:31.189Z,79.97
2018-12-29T11:08:00.643Z,79.58
2018-12-29T11:10:30.404Z,79.42
2018-12-29T11:13:00.495Z,79.22
2018-12-29T11:15:30.325Z,78.81
2018-12-29T11:18:00.333Z,78.37
2018-12-29T11:20:30.418Z,78.14
2018-12-29T11:23:00.388Z,78.76
2018-12-29T11:25:30.453Z,78.69
2018-12-29T11:28:00.630Z,78.34
2018-12-29T11:30:30.338Z,78.12
2018-12-29T11:33:00.330Z,77.88
2018-12-29T11:35:30.477Z,78.11
2018-12-29T11:38:00.409Z,77.99
2018-12-29T11:40:30.331Z,78.13
2018-12-29T11:43:00.470Z,78.37
2018-12-29T11:45:30.373Z,78.51
2018-12-29T11:48:00.373Z,78.25
2018-12-29T11:50:30.505Z,78.28
2018-12-29T11:53:00.359Z,78.43
2018-12-29T11:55:30.381Z,78.59
2018-12-29T11:58:00.599Z,78.90
2018-12-29T12:00:30.434Z,78.72
2018-12-29T12:03:00.326Z,78.47
2018-12-29T12:05:30.500Z,78.26
2018-12-29T12:08:00.335Z,78.93
2018-12-29T12:10:30.382Z,79.22
2018-12-29T12:13:00.414Z,78.99
2018-12-29T12:15:30.369Z,78.49
2018-12-29T12:18:00.621Z,78.65
2018-12-29T12:20:30.845Z,78.78
2018-12-29T12:23:00.418Z,78.43
2018-12-29T12:25:30.419Z,78.48
2018-12-29T12:28:00.453Z,78.76
2018-12-29T12:30:39.199Z,78.53
2018-12-29T12:33:09.245Z,78.70
2018-12-29T12:35:39.072Z,78.27
2018-12-29T12:38:08.841Z,78.39
2018-12-29T12:40:38.303Z,78.93
2018-12-29T12:43:10.852Z,78.84
2018-12-29T12:45:40.558Z,78.18
2018-12-29T12:48:10.006Z,77.49
2018-12-29T12:50:39.587Z,77.05
2018-12-29T12:53:09.120Z,77.47
2018-12-29T12:55:38.851Z,77.08
2018-12-29T12:58:10.116Z,76.63
2018-12-29T13:00:39.917Z,76.33
2018-12-29T13:03:12.565Z,76.33
2018-12-29T13:05:42.136Z,76.41
2018-12-29T13:08:11.533Z,76.43
2018-12-29T13:10:40.967Z,77.15
2018-12-29T13:13:10.482Z,77.27
2018-12-29T13:15:39.929Z,77.52
2018-12-29T13:18:13.065Z,77.20
2018-12-29T13:20:42.758Z,77.01
2018-12-29T13:23:12.263Z,76.90
2018-12-29T13:25:41.736Z,77.13
2018-12-29T13:28:11.217Z,77.41
2018-12-29T13:30:40.621Z,77.56
2018-12-29T13:33:10.235Z,77.33
2018-12-29T13:35:39.831Z,77.50
2018-12-29T13:38:09.237Z,77.20
2018-12-29T13:40:38.605Z,77.90
2018-12-29T13:43:08.147Z,77.99
2018-12-29T13:45:37.542Z,77.71
2018-12-29T13:48:07.101Z,77.19
2018-12-29T13:50:36.596Z,77.31
2018-12-29T13:53:06.244Z,77.38
2018-12-29T13:55:35.615Z,77.65
2018-12-29T13:58:05.170Z,77.72
2018-12-29T14:00:34.573Z,77.53
2018-12-29T14:03:04.002Z,77.15
2018-12-29T14:05:33.549Z,77.14
2018-12-29T14:08:02.943Z,77.31
2018-12-29T14:10:32.313Z,76.91
2018-12-29T14:13:01.897Z,76.38
2018-12-29T14:15:31.476Z,76.62
2018-12-29T14:18:00.862Z,77.25
2018-12-29T14:20:31.367Z,77.29
2018-12-29T14:23:00.788Z,76.99
2018-12-29T14:25:30.446Z,77.24
2018-12-29T14:28:00.653Z,77.24
2018-12-29T14:30:30.494Z,77.56
2018-12-29T14:33:00.506Z,78.04
2018-12-29T14:35:30.678Z,77.76
2018-12-29T14:38:00.651Z,78.24
2018-12-29T14:40:30.460Z,77.92
2018-12-29T14:43:00.555Z,77.43
2018-12-29T14:45:30.476Z,77.93
2018-12-29T14:48:00.497Z,78.01
2018-12-29T14:50:30.660Z,78.01
2018-12-29T14:53:00.504Z,78.21
2018-12-29T14:55:30.483Z,78.28
2018-12-29T14:58:00.600Z,78.73
2018-12-29T15:00:30.546Z,78.71
2018-12-29T15:03:00.509Z,79.13
2018-12-29T15:05:30.635Z,79.48
2018-12-29T15:08:00.698Z,80.02
2018-12-29T15:10:30.560Z,80.79
2018-12-29T15:13:00.603Z,80.70
2018-12-29T15:15:30.540Z,81.25
2018-12-29T15:18:00.556Z,81.17
2018-12-29T15:20:31.493Z,81.63
2018-12-29T15:23:01.178Z,81.92
2018-12-29T15:25:30.623Z,82.29
2018-12-29T15:28:00.651Z,82.63
2018-12-29T15:30:30.554Z,83.02
2018-12-29T15:33:00.534Z,83.47
2018-12-29T15:35:30.620Z,83.51
2018-12-29T15:38:00.546Z,83.34
2018-12-29T15:40:30.911Z,84.00
2018-12-29T15:43:00.606Z,84.55
2018-12-29T15:45:30.584Z,84.95
2018-12-29T15:48:00.603Z,84.84
2018-12-29T15:50:30.724Z,84.96
2018-12-29T15:53:00.560Z,84.85
2018-12-29T15:55:30.550Z,85.21
2018-12-29T15:58:00.749Z,86.00
2018-12-29T16:00:30.563Z,86.32
2018-12-29T16:03:02.172Z,86.68
2018-12-29T16:05:31.733Z,86.81
2018-12-29T16:08:01.126Z,87.52
2018-12-29T16:10:30.652Z,87.78
2018-12-29T16:13:00.739Z,87.54
2018-12-29T16:15:30.569Z,88.09
2018-12-29T16:18:00.628Z,87.67
2018-12-29T16:20:30.998Z,87.70
2018-12-29T16:23:00.578Z,87.77
2018-12-29T16:25:30.619Z,87.51
2018-12-29T16:28:01.045Z,87.35
2018-12-29T16:30:30.795Z,87.15
2018-12-29T16:33:00.633Z,87.02
2018-12-29T16:35:30.755Z,87.26
2018-12-29T16:38:00.658Z,87.76
2018-12-29T16:40:30.642Z,88.07
2018-12-29T16:43:00.818Z,87.57
2018-12-29T16:45:30.587Z,87.77
2018-12-29T16:48:00.631Z,87.61
2018-12-29T16:50:30.724Z,88.08
2018-12-29T16:53:00.661Z,87.58
2018-12-29T16:55:30.606Z,87.19
2018-12-29T16:58:00.836Z,87.14
2018-12-29T17:00:30.663Z,86.66
2018-12-29T17:03:00.648Z,86.60
2018-12-29T17:05:30.699Z,86.49
2018-12-29T17:08:00.650Z,86.46
2018-12-29T17:10:30.650Z,86.46
2018-12-29T17:13:00.820Z,86.59
2018-12-29T17:15:30.696Z,86.77
2018-12-29T17:18:00.804Z,86.96
2018-12-29T17:20:30.729Z,87.20
2018-12-29T17:23:00.717Z,87.54
2018-12-29T17:25:30.740Z,87.11
2018-12-29T17:28:00.814Z,87.64
2018-12-29T17:30:30.643Z,87.27
2018-12-29T17:33:00.642Z,87.20
2018-12-29T17:35:30.723Z,87.06
2018-12-29T17:38:00.714Z,86.53
2018-12-29T17:40:30.680Z,86.59
2018-12-29T17:43:00.706Z,86.59
2018-12-29T17:45:30.720Z,87.11
2018-12-29T17:48:00.767Z,87.18
2018-12-29T17:50:30.715Z,86.71
2018-12-29T17:53:00.695Z,86.56
2018-12-29T17:55:30.674Z,86.50
2018-12-29T17:58:01.339Z,86.93
2018-12-29T18:00:33.758Z,86.95
2018-12-29T18:03:03.192Z,86.86
2018-12-29T18:05:32.635Z,87.21
2018-12-29T18:08:02.169Z,87.79
2018-12-29T18:10:31.928Z,87.63
2018-12-29T18:13:01.453Z,87.47
2018-12-29T18:15:30.841Z,87.26
2018-12-29T18:18:01.448Z,87.10
2018-12-29T18:20:31.418Z,86.93
2018-12-29T18:23:04.440Z,86.64
2018-12-29T18:25:34.152Z,86.79
2018-12-29T18:28:05.261Z,87.11
2018-12-29T18:30:34.974Z,87.27
2018-12-29T18:33:04.657Z,87.31
2018-12-29T18:35:34.452Z,87.69
2018-12-29T18:38:08.766Z,88.08
2018-12-29T18:40:38.625Z,88.17
2018-12-29T18:43:08.579Z,88.56
2018-12-29T18:45:38.334Z,89.00
2018-12-29T18:48:08.612Z,88.89
2018-12-29T18:50:38.452Z,88.41
2018-12-29T18:53:08.200Z,88.75
2018-12-29T18:55:40.757Z,88.60
2018-12-29T18:58:10.317Z,89.12
2018-12-29T19:00:40.338Z,88.93
2018-12-29T19:03:09.835Z,89.07
2018-12-29T19:05:42.849Z,88.85
2018-12-29T19:08:12.960Z,88.60
2018-12-29T19:10:44.519Z,88.36
2018-12-29T19:13:14.386Z,88.14
2018-12-29T19:15:44.239Z,88.26
2018-12-29T19:18:14.006Z,88.22
2018-12-29T19:20:43.772Z,87.92
2018-12-29T19:23:13.816Z,88.13
2018-12-29T19:25:43.331Z,88.36
2018-12-29T19:28:13.673Z,88.38
2018-12-29T19:30:43.090Z,88.31
2018-12-29T19:33:13.100Z,88.27
2018-12-29T19:35:42.743Z,88.04
2018-12-29T19:38:12.874Z,87.95
2018-12-29T19:40:42.511Z,87.72
2018-12-29T19:43:12.722Z,88.13
2018-12-29T19:45:42.183Z,87.84
2018-12-29T19:48:11.599Z,87.83
2018-12-29T19:50:41.422Z,88.33
2018-12-29T19:53:11.431Z,88.00
2018-12-29T19:55:41.107Z,87.94
2018-12-29T19:58:11.249Z,87.38
2018-12-29T20:00:40.766Z,87.13
2018-12-29T20:03:11.343Z,87.31
2018-12-29T20:05:41.376Z,86.77
2018-12-29T20:08:10.911Z,87.15
2018-12-29T20:10:40.374Z,87.02
2018-12-29T20:13:10.174Z,87.19
2018-12-29T20:15:39.849Z,87.38
2018-12-29T20:18:12.236Z,87.47
2018-12-29T20:20:41.693Z,87.36
2018-12-29T20:23:11.316Z,87.64
2018-12-29T20:25:40.848Z,87.80
2018-12-29T20:28:10.613Z,87.51
2018-12-29T20:30:40.185Z,87.29
2018-12-29T20:33:09.663Z,87.29
2018-12-29T20:35:39.614Z,86.76
2018-12-29T20:38:09.086Z,86.55
2018-12-29T20:40:38.482Z,86.56
2018-12-29T20:43:08.160Z,86.31
2018-12-29T20:45:37.610Z,86.21
2018-12-29T20:48:07.334Z,86.57
2018-12-29T20:50:37.094Z,85.99
2018-12-29T20:53:06.459Z,85.87
2018-12-29T20:55:35.834Z,85.89
2018-12-29T20:58:05.580Z,86.02
2018-12-29T21:00:35.018Z,86.46
2018-12-29T21:03:04.594Z,85.92
2018-12-29T21:05:34.112Z,85.95
2018-12-29T21:08:03.692Z,86.08
2018-12-29T21:10:33.198Z,86.55
2018-12-29T21:13:02.986Z,86.80
2018-12-29T21:15:32.436Z,86.49
2018-12-29T21:18:01.971Z,86.13
2018-12-29T21:20:31.425Z,86.33
2018-12-29T21:23:01.087Z,86.70
2018-12-29T21:25:31.104Z,86.70
2018-12-29T21:28:02.879Z,86.54
2018-12-29T21:30:32.296Z,86.66
2018-12-29T21:33:02.532Z,86.60
2018-12-29T21:35:32.720Z,86.95
2018-12-29T21:38:02.196Z,86.89
2018-12-29T21:40:31.658Z,86.91
2018-12-29T21:43:01.190Z,86.68
2018-12-29T21:45:30.981Z,86.66
2018-12-29T21:48:01.072Z,86.57
2018-12-29T21:50:31.191Z,87.00
2018-12-29T21:53:00.993Z,86.62
2018-12-29T21:55:30.922Z,86.67
2018-12-29T21:58:01.138Z,85.80
2018-12-29T22:00:30.956Z,86.61
2018-12-29T22:03:01.023Z,86.41
2018-12-29T22:05:31.161Z,86.58
2018-12-29T22:08:01.197Z,86.98
2018-12-29T22:10:30.918Z,86.98
2018-12-29T22:13:00.965Z,87.26
2018-12-29T22:15:31.020Z,87.04
2018-12-29T22:18:00.961Z,87.06
2018-12-29T22:20:33.391Z,86.93
2018-12-29T22:23:02.191Z,86.69
2018-12-29T22:25:31.603Z,86.41
2018-12-29T22:28:01.251Z,86.01
2018-12-29T22:30:31.091Z,86.15
2018-12-29T22:33:01.103Z,86.99
2018-12-29T22:35:31.137Z,87.16
2018-12-29T22:38:00.993Z,87.37
2018-12-29T22:40:31.353Z,87.63
2018-12-29T22:43:03.400Z,87.74
2018-12-29T22:45:32.853Z,88.13
2018-12-29T22:48:02.316Z,88.08
2018-12-29T22:50:32.073Z,87.86
2018-12-29T22:53:01.463Z,87.60
2018-12-29T22:55:30.968Z,87.59
2018-12-29T22:58:08.396Z,87.41
2018-12-29T23:00:39.667Z,86.85
2018-12-29T23:03:09.275Z,86.50
2018-12-29T23:05:38.847Z,86.47
2018-12-29T23:08:08.257Z,86.73
2018-12-29T23:10:37.967Z,86.69
2018-12-29T23:13:08.109Z,86.98
2018-12-29T23:15:37.586Z,86.72
2018-12-29T23:18:07.370Z,87.10
2018-12-29T23:20:37.406Z,86.82
2018-12-29T23:23:06.811Z,86.91
2018-12-29T23:25:36.207Z,87.05
2018-12-29T23:28:05.742Z,87.20
2018-12-29T23:30:35.242Z,87.40
2018-12-29T23:33:04.801Z,87.58
2018-12-29T23:35:34.420Z,87.91
2018-12-29T23:38:04.234Z,87.89
2018-12-29T23:40:33.636Z,87.62
2018-12-29T23:43:03.224Z,87.49
2018-12-29T23:45:33.017Z,87.24
2018-12-29T23:48:02.696Z,87.50
2018-12-29T23:50:32.169Z,88.20
2018-12-29T23:53:01.871Z,88.38
2018-12-29T23:55:31.617Z,88.43
2018-12-29T23:58:01.109Z,88.44
